Calico Basin, Nevada
Current Conditions -  °F | °C
As of 6:56 PM on Wednesday 17 Dec 2014 (Local Time) from KHND Reporting Station
Overcast Overcast  
Wind Chill:   Ceiling: 4300
Heat Index:   Visibility: 10mi
Dew Point:   Wind: 5mph
Humidity: 80%   Direction: 170°S
Pressure: 30.08"   Gusts: NA
Location:  35.8437°N, 115.134°W
Report Text: KHND 180256Z AUTO 17004KT 10SM BKN043 OVC055 09/06 A3008 RMK AO2 SLP190 T00890056 52015 TSNO
Loading
Personal Weather Stations






























Interactive Weather Map New forecast layout! Learn more

10-Day Weather Forecast

Advertisements
Track Severe Weather on mobile